Terminal Aerodrome Forecast
Issued by NWS

Home | Current Version | Previous Version | Text Only | Print | Product List | Glossary On
Versions: 1 2 3 4 5 6 7 8 9 10 11 12 13 14 15 16 17 18 19 20 21 22 23 24 25 26
000
FTUS41 KBTV 232328
TAFMSS
TAF
KMSS 232328Z 2400/2424 06013G22KT P6SM BKN100
     FM240600 06015G23KT P6SM OVC020
     FM240800 06016G23KT 4SM -SNPL BR OVC010
     FM241300 05013G20KT 4SM -SNPL BR OVC008
     FM242100 04008KT 1SM -SN BR OVC008=

USA.gov is the U.S. government's official web portal to all federal, state and local government web resources and services.